createdAt,value
2022-07-26T00:00:01.313Z,23.92
2022-07-26T00:02:36.362Z,26.67
2022-07-26T00:05:12.314Z,33.53
2022-07-26T00:07:47.576Z,34.85
2022-07-26T00:10:25.064Z,36.35
2022-07-26T00:13:00.030Z,36.13
2022-07-26T00:15:35.194Z,33.20
2022-07-26T00:18:11.869Z,31.88
2022-07-26T00:20:48.287Z,31.90
2022-07-26T00:23:23.727Z,31.38
2022-07-26T00:26:01.303Z,32.65
2022-07-26T00:28:36.479Z,33.10
2022-07-26T00:31:12.919Z,34.10
2022-07-26T00:33:47.870Z,34.35
2022-07-26T00:36:23.100Z,33.60
2022-07-26T00:38:58.095Z,32.65
2022-07-26T00:41:35.634Z,36.30
2022-07-26T00:44:10.665Z,41.60
2022-07-26T00:46:46.486Z,45.05
2022-07-26T00:49:21.455Z,48.13
2022-07-26T00:51:56.499Z,49.90
2022-07-26T00:54:31.726Z,49.70
2022-07-26T00:57:09.608Z,49.53
2022-07-26T00:59:45.577Z,50.83
2022-07-26T01:02:21.136Z,48.40
2022-07-26T01:04:56.208Z,46.95
2022-07-26T01:07:31.840Z,46.58
2022-07-26T01:10:08.839Z,44.10
2022-07-26T01:12:47.159Z,41.33
2022-07-26T01:15:23.431Z,38.95
2022-07-26T01:17:58.330Z,32.55
2022-07-26T01:20:33.295Z,25.75
2022-07-26T01:23:11.583Z,21.52
2022-07-26T01:25:46.540Z,20.17
2022-07-26T01:28:23.921Z,18.30
2022-07-26T01:30:58.970Z,15.80
2022-07-26T01:33:34.058Z,14.15
2022-07-26T01:36:09.836Z,11.18
2022-07-26T01:38:47.848Z,8.93
2022-07-26T01:41:37.362Z,9.00
2022-07-26T01:44:13.321Z,8.68
2022-07-26T01:46:48.474Z,7.13
2022-07-26T01:49:23.610Z,6.38
2022-07-26T01:51:58.801Z,6.25
2022-07-26T01:54:36.320Z,6.68
2022-07-26T01:57:11.518Z,9.40
2022-07-26T01:59:46.474Z,9.35
2022-07-26T02:02:21.568Z,9.57
2022-07-26T02:05:03.727Z,8.63
2022-07-26T02:07:43.880Z,9.43
2022-07-26T02:10:23.552Z,8.88
2022-07-26T02:12:58.992Z,9.18
2022-07-26T02:15:34.006Z,8.25
2022-07-26T02:18:09.913Z,9.70
2022-07-26T02:20:45.193Z,9.60
2022-07-26T02:23:20.266Z,11.35
2022-07-26T02:25:58.611Z,10.80
2022-07-26T02:28:34.848Z,8.68
2022-07-26T02:31:09.894Z,8.05
2022-07-26T02:33:46.758Z,8.57
2022-07-26T02:36:21.781Z,8.52
2022-07-26T02:38:58.006Z,9.30
2022-07-26T02:41:35.552Z,9.23
2022-07-26T02:44:11.516Z,9.23
2022-07-26T02:46:46.892Z,10.18
2022-07-26T02:49:22.816Z,10.70
2022-07-26T02:51:57.894Z,11.73
2022-07-26T02:54:32.886Z,11.30
2022-07-26T02:57:10.632Z,11.70
2022-07-26T02:59:46.079Z,12.27
2022-07-26T03:02:21.009Z,12.55
2022-07-26T03:04:56.158Z,12.77
2022-07-26T03:07:31.733Z,14.18
2022-07-26T03:10:07.496Z,13.95
2022-07-26T03:12:45.459Z,13.57
2022-07-26T03:15:20.382Z,13.70
2022-07-26T03:17:55.519Z,15.23
2022-07-26T03:20:30.654Z,15.63
2022-07-26T03:23:05.561Z,14.27
2022-07-26T03:25:40.492Z,14.63
2022-07-26T03:28:19.681Z,14.85
2022-07-26T03:30:55.002Z,11.75
2022-07-26T03:33:46.032Z,11.27
2022-07-26T03:36:25.612Z,9.73
2022-07-26T03:39:00.633Z,9.63
2022-07-26T03:41:35.590Z,9.85
2022-07-26T03:44:13.198Z,10.70
2022-07-26T03:46:48.157Z,10.95
2022-07-26T03:49:23.287Z,11.70
2022-07-26T03:51:58.459Z,9.80
2022-07-26T03:54:33.460Z,8.65
2022-07-26T03:57:05.887Z,8.07
2022-07-26T03:59:43.491Z,7.90
2022-07-26T04:02:18.934Z,7.32
2022-07-26T04:04:53.926Z,7.32
2022-07-26T04:07:29.009Z,6.45
2022-07-26T04:10:06.538Z,6.13
2022-07-26T04:12:41.946Z,6.10
2022-07-26T04:15:21.367Z,6.07
2022-07-26T04:17:56.519Z,5.50
2022-07-26T04:20:31.621Z,5.10
2022-07-26T04:23:10.768Z,5.45
2022-07-26T04:25:47.385Z,5.00
2022-07-26T04:28:22.414Z,4.57
2022-07-26T04:31:00.734Z,4.55
2022-07-26T04:33:36.421Z,5.07
2022-07-26T04:36:12.105Z,4.75
2022-07-26T04:38:47.972Z,4.97
2022-07-26T04:41:23.073Z,4.53
2022-07-26T04:43:58.231Z,5.03
2022-07-26T04:46:35.769Z,4.65
2022-07-26T04:49:10.989Z,4.35
2022-07-26T04:51:45.996Z,4.93
2022-07-26T04:54:23.011Z,4.88
2022-07-26T04:56:58.002Z,4.90
2022-07-26T04:59:32.957Z,4.45
2022-07-26T05:02:10.645Z,4.78
2022-07-26T05:04:45.745Z,5.00
2022-07-26T05:07:20.715Z,5.00
2022-07-26T05:09:55.869Z,5.07
2022-07-26T05:12:30.946Z,4.45
2022-07-26T05:15:06.140Z,4.32
2022-07-26T05:17:51.243Z,4.95
2022-07-26T05:20:27.520Z,5.70
2022-07-26T05:23:02.894Z,6.00
2022-07-26T05:25:39.201Z,5.82
2022-07-26T05:28:14.505Z,5.75
2022-07-26T05:30:49.765Z,5.93
2022-07-26T05:33:27.469Z,5.68
2022-07-26T05:36:02.581Z,5.43
2022-07-26T05:38:37.628Z,5.10
2022-07-26T05:41:12.623Z,5.53
2022-07-26T05:43:47.586Z,5.43
2022-07-26T05:46:22.598Z,5.93
2022-07-26T05:49:00.416Z,6.07
2022-07-26T05:51:35.978Z,5.30
2022-07-26T05:54:11.735Z,5.40
2022-07-26T05:56:46.813Z,5.18
2022-07-26T05:59:21.673Z,4.93
2022-07-26T06:01:56.936Z,5.30
2022-07-26T06:04:34.513Z,4.50
2022-07-26T06:07:09.494Z,4.82
2022-07-26T06:09:44.613Z,4.35
2022-07-26T06:12:19.648Z,4.13
2022-07-26T06:14:54.510Z,3.90
2022-07-26T06:17:30.574Z,4.18
2022-07-26T06:20:09.476Z,4.47
2022-07-26T06:22:44.599Z,4.10
2022-07-26T06:25:19.933Z,4.05
2022-07-26T06:27:54.942Z,4.03
2022-07-26T06:30:30.130Z,4.00
2022-07-26T06:33:05.270Z,3.63
2022-07-26T06:35:42.755Z,3.30
2022-07-26T06:38:17.742Z,2.95
2022-07-26T06:40:52.738Z,2.90
2022-07-26T06:43:27.773Z,2.88
2022-07-26T06:46:02.916Z,2.75
2022-07-26T06:48:38.156Z,2.65
2022-07-26T06:51:19.694Z,3.58
2022-07-26T06:53:54.657Z,2.90
2022-07-26T06:56:29.770Z,2.65
2022-07-26T06:59:09.252Z,2.63
2022-07-26T07:01:59.304Z,2.80
2022-07-26T07:04:36.600Z,2.40
2022-07-26T07:07:14.254Z,2.28
2022-07-26T07:09:49.759Z,2.45
2022-07-26T07:12:24.758Z,2.80
2022-07-26T07:14:59.864Z,2.10
2022-07-26T07:17:35.092Z,2.35
2022-07-26T07:20:10.679Z,2.55
2022-07-26T07:22:48.696Z,2.03
2022-07-26T07:25:30.569Z,2.60
2022-07-26T07:28:06.975Z,1.92
2022-07-26T07:30:41.900Z,2.05
2022-07-26T07:33:22.249Z,1.73
2022-07-26T07:35:58.107Z,1.85
2022-07-26T07:38:37.431Z,1.50
2022-07-26T07:41:19.053Z,1.90
2022-07-26T07:43:53.995Z,1.80
2022-07-26T07:46:29.242Z,2.15
2022-07-26T07:49:04.441Z,1.58
2022-07-26T07:51:39.468Z,1.90
2022-07-26T07:54:18.364Z,1.65
2022-07-26T07:56:56.250Z,1.70
2022-07-26T07:59:31.450Z,1.67
2022-07-26T08:02:06.386Z,1.63
2022-07-26T08:04:41.473Z,2.08
2022-07-26T08:07:16.547Z,1.58
2022-07-26T08:09:54.050Z,1.63
2022-07-26T08:12:29.045Z,1.40
2022-07-26T08:15:07.468Z,1.90
2022-07-26T08:17:43.315Z,1.75
2022-07-26T08:20:19.473Z,1.60
2022-07-26T08:22:58.058Z,1.60
2022-07-26T08:25:35.624Z,1.80
2022-07-26T08:28:30.734Z,2.10
2022-07-26T08:31:05.830Z,1.75
2022-07-26T08:33:40.875Z,1.55
2022-07-26T08:36:20.918Z,1.70
2022-07-26T08:38:55.941Z,1.60
2022-07-26T08:41:33.835Z,1.92
2022-07-26T08:44:09.973Z,1.77
2022-07-26T08:46:45.579Z,2.25
2022-07-26T08:49:20.715Z,2.15
2022-07-26T08:51:58.414Z,2.25
2022-07-26T08:54:33.379Z,2.00
2022-07-26T08:57:11.103Z,1.90
2022-07-26T08:59:47.721Z,1.90
2022-07-26T09:02:22.848Z,2.00
2022-07-26T09:05:07.022Z,2.33
2022-07-26T09:07:43.229Z,1.98
2022-07-26T09:10:18.944Z,2.28
2022-07-26T09:12:59.559Z,1.83
2022-07-26T09:15:34.541Z,1.77
2022-07-26T09:18:09.509Z,1.98
2022-07-26T09:20:49.932Z,1.48
2022-07-26T09:23:25.063Z,1.80
2022-07-26T09:26:14.841Z,2.08
2022-07-26T09:29:06.381Z,1.55
2022-07-26T09:31:42.551Z,1.70
2022-07-26T09:34:27.603Z,1.75
2022-07-26T09:37:02.903Z,1.60
2022-07-26T09:39:57.147Z,1.70
2022-07-26T09:42:32.577Z,2.40
2022-07-26T09:45:19.298Z,2.05
2022-07-26T09:47:54.459Z,1.80
2022-07-26T09:50:32.542Z,1.77
2022-07-26T09:53:10.094Z,1.35
2022-07-26T09:55:58.926Z,1.55
2022-07-26T09:58:34.493Z,1.60
2022-07-26T10:01:13.630Z,1.67
2022-07-26T10:03:48.722Z,1.38
2022-07-26T10:06:28.582Z,1.33
2022-07-26T10:09:06.373Z,1.50
2022-07-26T10:11:45.279Z,1.40
2022-07-26T10:14:39.288Z,1.55
2022-07-26T10:17:47.110Z,1.27
2022-07-26T10:20:49.836Z,1.20
2022-07-26T10:23:41.954Z,1.05
2022-07-26T10:26:45.544Z,1.30
2022-07-26T10:29:29.341Z,1.45
2022-07-26T10:32:21.189Z,1.23
2022-07-26T10:34:56.319Z,1.23
2022-07-26T10:37:31.412Z,1.23
2022-07-26T10:40:25.359Z,1.30
2022-07-26T10:43:40.252Z,1.23
2022-07-26T10:46:29.692Z,1.30
2022-07-26T10:49:07.021Z,1.30
2022-07-26T10:51:43.684Z,1.30
2022-07-26T10:54:18.550Z,1.00
2022-07-26T10:56:53.477Z,1.20
2022-07-26T10:59:55.386Z,1.25
2022-07-26T11:02:33.981Z,1.40
2022-07-26T11:05:15.835Z,1.20
2022-07-26T11:08:01.541Z,1.30
2022-07-26T11:10:38.389Z,1.00
2022-07-26T11:13:19.039Z,1.00
2022-07-26T11:16:03.134Z,1.08
2022-07-26T11:18:40.125Z,1.20
2022-07-26T11:21:17.225Z,1.23
2022-07-26T11:23:52.251Z,0.90
2022-07-26T11:26:27.349Z,0.88
2022-07-26T11:29:06.455Z,0.95
2022-07-26T11:31:49.527Z,1.13
2022-07-26T11:34:27.434Z,0.95
2022-07-26T11:37:04.683Z,1.30
2022-07-26T11:39:39.687Z,0.90
2022-07-26T11:42:17.123Z,1.40
2022-07-26T11:44:54.065Z,1.00
2022-07-26T11:47:31.994Z,1.10
2022-07-26T11:50:14.340Z,1.20
2022-07-26T11:52:51.978Z,0.90
2022-07-26T11:55:31.619Z,1.15
2022-07-26T11:58:08.761Z,1.30
2022-07-26T12:00:43.966Z,1.15
2022-07-26T12:03:22.181Z,1.20
2022-07-26T12:06:06.188Z,1.05
2022-07-26T12:08:46.620Z,1.23
2022-07-26T12:11:26.797Z,1.10
2022-07-26T12:14:03.609Z,1.30
2022-07-26T12:16:44.766Z,1.48
2022-07-26T12:19:30.922Z,1.10
2022-07-26T12:22:12.929Z,1.25
